Time;durP1;ratioP1;P1;durP2;ratioP2;P2;SDS_P1;SDS_P2;PMS_P1;PMS_P2;Temp;Humidity;BMP_temperature;BMP_pressure;BME280_temperature;BME280_humidity;BME280_pressure;Samples;Min_cycle;Max_cycle;Signal;HPM_P1;HPM_P2
2022/03/14 00:02:24;;;;;;;2.17;1.58;;;11.00;99.90;;;;;;5076004;28;20111;-69
2022/03/14 00:04:50;;;;;;;2.50;1.42;;;11.00;99.90;;;;;;5042087;28;20032;-68
2022/03/14 00:07:18;;;;;;;1.80;1.52;;;11.00;99.90;;;;;;5076874;28;20036;-69
2022/03/14 00:09:44;;;;;;;2.15;1.92;;;10.90;99.90;;;;;;5059207;28;20124;-69
2022/03/14 00:12:13;;;;;;;2.67;1.70;;;11.00;99.90;;;;;;5075889;28;20538;-68
2022/03/14 00:14:38;;;;;;;2.45;2.13;;;11.00;99.90;;;;;;5059501;28;20028;-69
2022/03/14 00:17:11;;;;;;;1.77;1.67;;;10.90;99.90;;;;;;5059130;28;20062;-72
2022/03/14 00:19:37;;;;;;;3.30;2.10;;;10.80;99.90;;;;;;5076014;28;20033;-71
2022/03/14 00:22:04;;;;;;;2.45;2.17;;;10.60;99.90;;;;;;5058875;28;20024;-69
2022/03/14 00:24:34;;;;;;;2.58;1.85;;;10.50;99.90;;;;;;5075789;28;20037;-68
2022/03/14 00:27:00;;;;;;;2.35;2.15;;;10.50;99.90;;;;;;5075758;28;20028;-68
2022/03/14 00:29:28;;;;;;;3.03;2.10;;;10.50;99.90;;;;;;5042893;28;20381;-70
2022/03/14 00:31:54;;;;;;;2.58;2.38;;;10.40;99.90;;;;;;5059126;28;20059;-69
2022/03/14 00:34:20;;;;;;;2.65;2.42;;;10.30;99.90;;;;;;5058847;28;20033;-70
2022/03/14 00:36:48;;;;;;;2.53;2.33;;;10.30;99.90;;;;;;5076262;28;20048;-70
2022/03/14 00:39:14;;;;;;;2.75;2.55;;;10.20;99.90;;;;;;5076001;28;20059;-70
2022/03/14 00:41:40;;;;;;;2.70;2.47;;;10.20;99.90;;;;;;5075549;28;20041;-70
2022/03/14 00:44:06;;;;;;;4.20;2.85;;;10.20;99.90;;;;;;5075462;28;20119;-70
2022/03/14 00:46:32;;;;;;;4.65;2.75;;;10.10;99.90;;;;;;5076214;28;20044;-69
2022/03/14 00:48:58;;;;;;;3.03;2.78;;;10.10;99.90;;;;;;5059024;28;20032;-69
2022/03/14 00:51:23;;;;;;;2.90;2.70;;;10.10;99.90;;;;;;5058754;28;20048;-69
2022/03/14 00:53:49;;;;;;;3.10;2.80;;;10.10;99.90;;;;;;5075426;28;20388;-69
2022/03/14 00:56:17;;;;;;;3.20;2.90;;;10.10;99.90;;;;;;5075688;28;20123;-69
2022/03/14 00:58:43;;;;;;;3.22;2.92;;;10.10;99.90;;;;;;5075474;28;20115;-70
2022/03/14 01:01:09;;;;;;;3.38;2.90;;;10.20;99.90;;;;;;5076597;28;20036;-69
2022/03/14 01:03:35;;;;;;;3.15;2.80;;;10.10;99.90;;;;;;5025699;28;20107;-70
2022/03/14 01:06:01;;;;;;;3.20;2.90;;;10.10;99.90;;;;;;5075227;28;20033;-69
2022/03/14 01:08:27;;;;;;;3.17;2.97;;;10.10;99.90;;;;;;5058895;28;20036;-69
2022/03/14 01:10:53;;;;;;;2.85;2.65;;;10.10;99.90;;;;;;5076738;28;20038;-70
2022/03/14 01:13:19;;;;;;;3.08;2.80;;;10.00;99.90;;;;;;5042386;28;20273;-70
2022/03/14 01:15:45;;;;;;;2.85;2.65;;;10.00;99.90;;;;;;5075176;28;20051;-68
2022/03/14 01:18:10;;;;;;;2.95;2.70;;;10.00;99.90;;;;;;5078731;28;20032;-69
2022/03/14 01:20:36;;;;;;;3.42;3.13;;;10.00;99.90;;;;;;5079474;28;20257;-69
2022/03/14 01:23:02;;;;;;;2.95;2.75;;;10.00;99.90;;;;;;5078716;28;20368;-69
2022/03/14 01:25:28;;;;;;;3.33;3.03;;;10.10;99.90;;;;;;5079530;28;20028;-69
2022/03/14 01:27:55;;;;;;;3.72;3.10;;;10.10;99.90;;;;;;5079371;28;20021;-68
2022/03/14 01:30:22;;;;;;;3.45;3.15;;;10.10;99.90;;;;;;5079129;28;20060;-68
2022/03/14 01:32:48;;;;;;;3.63;3.05;;;10.10;99.90;;;;;;5079141;28;20033;-70
2022/03/14 01:35:17;;;;;;;2.90;2.63;;;10.10;99.90;;;;;;5079244;28;20024;-69
2022/03/14 01:37:43;;;;;;;3.08;2.78;;;10.10;99.90;;;;;;5078491;28;20060;-69
2022/03/14 01:40:11;;;;;;;3.00;2.70;;;10.00;99.90;;;;;;5078633;28;20044;-70
2022/03/14 01:42:37;;;;;;;3.53;2.80;;;10.00;99.90;;;;;;5079121;28;20036;-70
2022/03/14 01:45:04;;;;;;;3.03;2.83;;;10.00;99.90;;;;;;5078304;28;20041;-69
2022/03/14 01:47:30;;;;;;;3.20;2.90;;;10.00;99.90;;;;;;5078594;28;20046;-69
2022/03/14 01:49:56;;;;;;;4.35;2.90;;;9.90;99.90;;;;;;5079311;28;20037;-69
2022/03/14 01:52:22;;;;;;;3.72;3.25;;;9.90;99.90;;;;;;5061398;28;20063;-68
2022/03/14 01:54:48;;;;;;;4.07;3.25;;;10.10;99.90;;;;;;5078605;28;20041;-69
2022/03/14 01:57:14;;;;;;;3.60;3.30;;;10.10;99.90;;;;;;5077971;28;20056;-69
2022/03/14 01:59:40;;;;;;;5.30;3.63;;;10.10;99.90;;;;;;5061490;28;20105;-69
2022/03/14 02:02:15;;;;;;;4.13;3.67;;;10.10;99.90;;;;;;5063174;28;20033;-68
2022/03/14 02:04:42;;;;;;;5.15;4.35;;;10.10;99.90;;;;;;5078992;28;20036;-68
2022/03/14 02:07:09;;;;;;;5.10;4.55;;;10.30;99.90;;;;;;5078709;28;20060;-67
2022/03/14 02:09:35;;;;;;;4.50;4.10;;;10.40;99.90;;;;;;5077856;28;20348;-69
2022/03/14 02:12:01;;;;;;;5.45;4.65;;;10.40;99.90;;;;;;5077962;28;20083;-67
2022/03/14 02:14:27;;;;;;;6.25;4.80;;;10.20;99.90;;;;;;5060972;28;20029;-67
2022/03/14 02:16:53;;;;;;;6.20;5.20;;;10.30;99.90;;;;;;5060985;28;20076;-68
2022/03/14 02:19:20;;;;;;;6.38;5.78;;;10.40;99.90;;;;;;5061164;28;20064;-68
2022/03/14 02:21:46;;;;;;;7.10;5.70;;;10.30;99.90;;;;;;5078553;28;20040;-70
2022/03/14 02:24:14;;;;;;;5.75;5.25;;;10.10;99.90;;;;;;5045133;28;20052;-68
2022/03/14 02:26:41;;;;;;;5.53;4.95;;;10.10;99.90;;;;;;5078054;28;20028;-70
2022/03/14 02:29:07;;;;;;;5.80;5.25;;;10.10;99.90;;;;;;5077665;28;20039;-68
2022/03/14 02:31:36;;;;;;;6.15;5.30;;;10.00;99.90;;;;;;5078482;28;20414;-71
2022/03/14 02:34:11;;;;;;;5.70;5.20;;;9.90;99.90;;;;;;5077525;28;20029;-70
2022/03/14 02:36:39;;;;;;;6.72;6.03;;;9.90;99.90;;;;;;5077478;28;20285;-69
2022/03/14 02:39:06;;;;;;;8.15;5.47;;;9.90;99.90;;;;;;5060813;28;20056;-69
2022/03/14 02:41:32;;;;;;;7.13;5.50;;;9.90;99.90;;;;;;5077588;28;20039;-69
2022/03/14 02:43:59;;;;;;;7.57;5.55;;;9.80;99.90;;;;;;5060516;28;20032;-69
2022/03/14 02:46:25;;;;;;;5.88;5.35;;;9.80;99.90;;;;;;5077083;28;20127;-69
2022/03/14 02:48:51;;;;;;;6.57;5.43;;;9.90;99.90;;;;;;5060548;28;20060;-68
2022/03/14 02:51:17;;;;;;;5.93;5.32;;;9.80;99.90;;;;;;5077361;28;20040;-70
2022/03/14 02:53:43;;;;;;;6.05;5.45;;;9.80;99.90;;;;;;5076992;28;20044;-69
2022/03/14 02:56:09;;;;;;;5.82;4.88;;;9.80;99.90;;;;;;5077616;28;20039;-68
2022/03/14 02:58:39;;;;;;;5.95;5.35;;;9.70;99.90;;;;;;5077054;28;20036;-70
2022/03/14 03:01:05;;;;;;;6.47;5.60;;;9.70;99.90;;;;;;5078012;28;20041;-69
2022/03/14 03:03:32;;;;;;;6.18;5.57;;;9.60;99.90;;;;;;5076905;28;20024;-70
2022/03/14 03:06:00;;;;;;;7.45;5.80;;;9.50;99.90;;;;;;5061287;28;20070;-69
2022/03/14 03:08:27;;;;;;;6.47;5.40;;;9.50;99.90;;;;;;5043965;28;20046;-69
2022/03/14 03:10:57;;;;;;;6.82;5.55;;;9.40;99.90;;;;;;5078211;28;20044;-69
2022/03/14 03:13:23;;;;;;;5.82;5.22;;;9.40;99.90;;;;;;5076819;28;20041;-70
2022/03/14 03:15:49;;;;;;;6.20;5.60;;;9.40;99.90;;;;;;5060450;28;20048;-69
2022/03/14 03:18:15;;;;;;;6.18;5.25;;;9.40;99.90;;;;;;5077447;28;20032;-68
2022/03/14 03:20:42;;;;;;;6.75;6.03;;;9.30;99.90;;;;;;5060237;28;20045;-69
2022/03/14 03:23:08;;;;;;;6.05;5.45;;;9.30;99.90;;;;;;5077540;28;20039;-69
2022/03/14 03:25:34;;;;;;;6.85;6.22;;;9.30;99.90;;;;;;5026785;28;20036;-70
2022/03/14 03:28:00;;;;;;;7.43;6.15;;;9.20;99.90;;;;;;5077019;28;20278;-71
2022/03/14 03:30:26;;;;;;;6.82;6.10;;;9.10;99.90;;;;;;5059943;28;20032;-70
2022/03/14 03:32:52;;;;;;;6.53;5.88;;;9.10;99.90;;;;;;5077318;28;20047;-70
2022/03/14 03:35:18;;;;;;;7.22;6.30;;;9.10;99.90;;;;;;5059748;28;20403;-71
2022/03/14 03:37:44;;;;;;;7.88;6.22;;;9.10;99.90;;;;;;5059660;28;20053;-70
2022/03/14 03:40:11;;;;;;;8.32;6.80;;;9.10;99.90;;;;;;5076187;28;20037;-69
2022/03/14 03:42:36;;;;;;;8.63;6.38;;;9.10;99.90;;;;;;5077537;28;20040;-70
2022/03/14 03:45:03;;;;;;;7.82;6.97;;;9.10;99.90;;;;;;5076289;28;20039;-71
2022/03/14 03:47:29;;;;;;;9.18;7.40;;;9.10;99.90;;;;;;5059211;28;20032;-70
2022/03/14 03:49:54;;;;;;;10.48;8.20;;;9.10;99.90;;;;;;5076046;28;20093;-71
2022/03/14 03:52:20;;;;;;;13.02;9.35;;;9.10;99.90;;;;;;5076138;28;20040;-69
2022/03/14 03:54:46;;;;;;;10.25;8.85;;;9.20;99.90;;;;;;5043836;28;20028;-71
2022/03/14 03:57:12;;;;;;;11.45;9.10;;;9.20;99.90;;;;;;5076718;28;20039;-70
2022/03/14 03:59:38;;;;;;;14.82;9.10;;;9.20;99.90;;;;;;5076077;28;20352;-69
2022/03/14 04:02:05;;;;;;;11.23;9.20;;;9.20;99.90;;;;;;5077178;28;20036;-71
2022/03/14 04:04:31;;;;;;;13.43;9.80;;;9.20;99.90;;;;;;5076048;28;20036;-70
2022/03/14 04:06:57;;;;;;;11.98;9.82;;;9.30;99.90;;;;;;5076071;28;20093;-70
2022/03/14 04:09:27;;;;;;;13.43;9.75;;;9.30;99.90;;;;;;5059312;28;20044;-71
2022/03/14 04:11:53;;;;;;;16.25;11.02;;;9.30;99.90;;;;;;5077015;28;20043;-69
2022/03/14 04:14:20;;;;;;;12.30;9.90;;;9.30;99.90;;;;;;5075924;28;20021;-69
2022/03/14 04:16:46;;;;;;;11.15;9.95;;;9.30;99.90;;;;;;5076612;28;20033;-70
2022/03/14 04:19:11;;;;;;;13.95;10.35;;;9.30;99.90;;;;;;5059076;28;20123;-69
2022/03/14 04:21:39;;;;;;;14.88;11.27;;;9.40;99.90;;;;;;5059496;28;20045;-69
2022/03/14 04:24:06;;;;;;;13.98;10.20;;;9.40;99.90;;;;;;5075947;28;20124;-69
2022/03/14 04:26:32;;;;;;;13.60;11.10;;;9.50;99.90;;;;;;5076508;28;20273;-69
2022/03/14 04:28:58;;;;;;;15.63;11.15;;;9.50;99.90;;;;;;5059061;28;20081;-70
2022/03/14 04:31:24;;;;;;;13.05;11.02;;;9.50;99.90;;;;;;5059115;28;20043;-69
2022/03/14 04:33:50;;;;;;;17.23;11.40;;;9.60;99.90;;;;;;5075714;28;20116;-68
2022/03/14 04:36:16;;;;;;;17.08;11.65;;;9.60;99.90;;;;;;5075529;28;20032;-68
2022/03/14 04:38:42;;;;;;;12.68;10.65;;;9.80;99.90;;;;;;5075411;28;20044;-68
2022/03/14 04:41:09;;;;;;;14.93;11.65;;;9.70;99.90;;;;;;5076224;28;20040;-67
2022/03/14 04:43:35;;;;;;;15.30;11.82;;;9.80;99.90;;;;;;5075636;28;20032;-68
2022/03/14 04:46:01;;;;;;;17.27;11.52;;;9.80;99.90;;;;;;5076552;28;20033;-69
2022/03/14 04:48:27;;;;;;;17.25;11.93;;;9.70;99.90;;;;;;5075601;28;20351;-70
2022/03/14 04:50:53;;;;;;;15.65;11.48;;;9.60;99.90;;;;;;5061630;28;20138;-68
2022/03/14 04:53:19;;;;;;;14.68;11.52;;;9.50;99.90;;;;;;5080244;28;20124;-67
2022/03/14 04:55:44;;;;;;;16.17;11.52;;;9.60;99.90;;;;;;5062735;28;20033;-68
2022/03/14 04:58:14;;;;;;;15.63;11.90;;;9.70;99.90;;;;;;5079683;28;20040;-69
2022/03/14 05:00:41;;;;;;;17.58;11.75;;;9.60;99.90;;;;;;5079498;28;20036;-68
2022/03/14 05:03:08;;;;;;;17.98;12.02;;;9.60;99.90;;;;;;5080130;28;20078;-71
2022/03/14 05:05:40;;;;;;;16.92;12.20;;;9.60;99.90;;;;;;5063359;28;20316;-65
2022/03/14 05:08:06;;;;;;;15.35;11.52;;;9.60;99.90;;;;;;5062325;28;20063;-66
2022/03/14 05:10:32;;;;;;;18.08;11.57;;;9.60;99.90;;;;;;5079057;28;20292;-65
2022/03/14 05:13:00;;;;;;;15.95;11.82;;;9.60;99.90;;;;;;5078985;28;20033;-64
2022/03/14 05:15:25;;;;;;;20.08;12.48;;;9.70;99.90;;;;;;5079109;28;20035;-67
2022/03/14 05:17:53;;;;;;;16.02;11.80;;;9.80;99.90;;;;;;5078843;28;20071;-65
2022/03/14 05:20:19;;;;;;;15.98;12.00;;;9.70;99.90;;;;;;5062297;28;20400;-66
2022/03/14 05:22:49;;;;;;;16.77;11.88;;;9.70;99.90;;;;;;5079497;28;20033;-67
2022/03/14 05:25:21;;;;;;;16.38;11.50;;;9.50;99.90;;;;;;5079621;28;20029;-66
2022/03/14 05:27:47;;;;;;;17.58;12.32;;;9.50;99.90;;;;;;5063147;28;20036;-67
2022/03/14 05:30:14;;;;;;;16.88;10.80;;;9.60;99.90;;;;;;5062013;28;20013;-67
2022/03/14 05:32:40;;;;;;;17.15;11.88;;;9.40;99.90;;;;;;5079413;28;20108;-66
2022/03/14 05:35:08;;;;;;;18.17;12.00;;;9.40;99.90;;;;;;5079333;28;20033;-67
2022/03/14 05:37:34;;;;;;;18.50;13.07;;;9.30;99.90;;;;;;5078539;28;20032;-67
2022/03/14 05:40:00;;;;;;;16.80;12.57;;;9.40;99.90;;;;;;5078526;28;20435;-67
2022/03/14 05:42:26;;;;;;;17.85;12.90;;;9.40;99.90;;;;;;5061766;28;20316;-68
2022/03/14 05:44:52;;;;;;;16.40;11.82;;;9.40;99.90;;;;;;5079708;28;20257;-68
2022/03/14 05:47:19;;;;;;;20.83;12.00;;;9.40;99.90;;;;;;5078390;28;20032;-67
2022/03/14 05:49:46;;;;;;;19.55;12.48;;;9.40;99.90;;;;;;5078904;28;20028;-67
2022/03/14 05:52:13;;;;;;;16.17;11.90;;;9.40;99.90;;;;;;5078215;28;20086;-66
2022/03/14 05:54:39;;;;;;;20.30;12.32;;;9.40;99.90;;;;;;5078325;28;20028;-68
2022/03/14 05:57:06;;;;;;;20.30;12.70;;;9.50;99.90;;;;;;5045281;28;20044;-67
2022/03/14 05:59:32;;;;;;;18.13;12.77;;;9.50;99.90;;;;;;5028589;28;20044;-67
2022/03/14 06:01:58;;;;;;;16.80;11.95;;;9.40;99.90;;;;;;5027510;28;20033;-67
2022/03/14 06:04:24;;;;;;;19.00;12.57;;;9.40;99.90;;;;;;5078903;28;20047;-67
2022/03/14 06:06:49;;;;;;;19.95;12.55;;;9.30;99.90;;;;;;5044962;28;20032;-66
2022/03/14 06:09:15;;;;;;;17.83;13.18;;;9.40;99.90;;;;;;5077963;28;20036;-67
2022/03/14 06:11:42;;;;;;;18.52;12.88;;;9.40;99.90;;;;;;5078659;28;20048;-66
2022/03/14 06:14:08;;;;;;;18.90;13.18;;;9.40;99.90;;;;;;5078625;28;20327;-67
2022/03/14 06:16:34;;;;;;;20.60;13.88;;;9.40;99.90;;;;;;5077853;28;20032;-65
2022/03/14 06:19:00;;;;;;;17.98;14.10;;;9.50;99.90;;;;;;5078001;28;20046;-66
2022/03/14 06:21:26;;;;;;;18.52;12.57;;;9.50;99.90;;;;;;5061188;28;20047;-66
2022/03/14 06:23:54;;;;;;;18.88;12.55;;;9.40;99.90;;;;;;5077718;28;20028;-65
2022/03/14 06:26:20;;;;;;;17.38;12.57;;;9.40;99.90;;;;;;5061062;28;20032;-67
2022/03/14 06:28:45;;;;;;;16.98;12.05;;;9.40;99.90;;;;;;5060890;28;20048;-67
2022/03/14 06:31:12;;;;;;;17.55;12.43;;;9.50;99.90;;;;;;5078110;28;20029;-67
2022/03/14 06:33:38;;;;;;;20.05;11.88;;;9.50;99.90;;;;;;5078043;28;20087;-68
2022/03/14 06:36:04;;;;;;;20.33;12.00;;;9.50;99.90;;;;;;5077561;28;20185;-65
2022/03/14 06:38:32;;;;;;;18.77;12.02;;;9.50;99.90;;;;;;5077211;28;20071;-66
2022/03/14 06:40:59;;;;;;;18.70;11.70;;;9.60;99.90;;;;;;5077448;28;20045;-65
2022/03/14 06:43:25;;;;;;;18.08;11.30;;;9.50;99.90;;;;;;5060629;28;20078;-66
2022/03/14 06:45:51;;;;;;;13.85;10.73;;;9.60;99.90;;;;;;5077325;28;20032;-65
2022/03/14 06:48:18;;;;;;;17.65;11.38;;;9.40;99.90;;;;;;5077505;28;20056;-65
2022/03/14 06:50:44;;;;;;;17.73;11.32;;;9.50;99.90;;;;;;5060314;28;20086;-65
2022/03/14 06:53:10;;;;;;;16.45;11.20;;;9.50;99.90;;;;;;5077177;28;20032;-67
2022/03/14 06:55:36;;;;;;;17.02;11.13;;;9.40;99.90;;;;;;5060731;28;20036;-65
2022/03/14 06:58:02;;;;;;;16.27;11.38;;;9.50;99.90;;;;;;5076873;28;20024;-65
2022/03/14 07:00:28;;;;;;;15.25;10.52;;;9.50;99.90;;;;;;5076953;28;20113;-65
2022/03/14 07:02:56;;;;;;;15.85;10.90;;;9.60;99.90;;;;;;5077535;28;20039;-65
2022/03/14 07:05:24;;;;;;;19.20;11.73;;;9.50;99.90;;;;;;5060212;28;20032;-66
2022/03/14 07:07:53;;;;;;;15.95;10.82;;;9.40;99.90;;;;;;5077042;28;20312;-65
2022/03/14 07:10:21;;;;;;;18.15;11.27;;;9.50;99.90;;;;;;5076790;28;20051;-64
2022/03/14 07:12:48;;;;;;;15.63;10.52;;;9.60;99.90;;;;;;5077283;28;20111;-64
2022/03/14 07:15:20;;;;;;;17.25;10.48;;;9.70;99.90;;;;;;5077214;28;20029;-65
2022/03/14 07:17:49;;;;;;;17.10;10.77;;;9.80;99.90;;;;;;5077661;28;20024;-65
2022/03/14 07:20:18;;;;;;;16.80;10.82;;;9.80;99.90;;;;;;5077213;28;20028;-65
2022/03/14 07:23:02;;;;;;;14.52;11.05;;;9.80;99.90;;;;;;5076576;28;20036;-66
2022/03/14 07:25:31;;;;;;;14.48;10.40;;;9.90;99.90;;;;;;5076805;28;20029;-65
2022/03/14 07:28:02;;;;;;;18.65;10.07;;;9.90;99.90;;;;;;5076406;28;20430;-66
2022/03/14 07:30:28;;;;;;;15.15;10.10;;;9.80;99.90;;;;;;5076535;28;20025;-68
2022/03/14 07:32:54;;;;;;;13.52;9.65;;;9.70;99.90;;;;;;5076443;28;20136;-65
2022/03/14 07:35:21;;;;;;;20.30;10.82;;;10.10;99.90;;;;;;5077030;28;20035;-67
2022/03/14 07:37:48;;;;;;;14.52;10.63;;;10.00;99.90;;;;;;5060377;28;20036;-66
2022/03/14 07:40:14;;;;;;;17.70;11.25;;;10.00;99.90;;;;;;5076134;28;20053;-63
2022/03/14 07:42:47;;;;;;;20.42;10.63;;;10.00;99.90;;;;;;5076456;28;20056;-66
2022/03/14 07:45:20;;;;;;;17.77;10.98;;;10.10;99.90;;;;;;5076325;28;20028;-67
2022/03/14 07:47:45;;;;;;;;;;;10.10;99.90;;;;;;5060015;28;20107;-65
2022/03/14 07:50:15;;;;;;;14.05;9.23;;;10.00;99.90;;;;;;5076170;28;20008;-65
2022/03/14 07:52:42;;;;;;;14.18;9.57;;;10.10;99.90;;;;;;5076891;28;20110;-66
2022/03/14 07:55:09;;;;;;;14.23;9.48;;;10.30;99.90;;;;;;5077335;28;20083;-67
2022/03/14 07:57:36;;;;;;;12.77;9.55;;;10.20;99.90;;;;;;5076314;28;20037;-65
2022/03/14 08:00:05;;;;;;;14.65;8.95;;;10.20;99.90;;;;;;5076912;28;20060;-65
2022/03/14 08:02:41;;;;;;;16.58;8.30;;;10.40;99.90;;;;;;5076850;28;20124;-66
2022/03/14 08:05:09;;;;;;;14.80;8.23;;;10.60;99.90;;;;;;5077216;28;20033;-66
2022/03/14 08:07:36;;;;;;;14.80;8.13;;;10.50;99.90;;;;;;5076629;28;20025;-67
2022/03/14 08:10:06;;;;;;;16.08;8.05;;;10.30;99.90;;;;;;5077120;28;20117;-66
2022/03/14 08:12:40;;;;;;;14.40;8.05;;;10.30;99.90;;;;;;5076779;28;20351;-66
2022/03/14 08:15:08;;;;;;;13.55;7.60;;;10.40;99.90;;;;;;5076069;28;20085;-66
2022/03/14 08:17:34;;;;;;;11.23;7.13;;;10.50;99.90;;;;;;5059318;28;20033;-66
2022/03/14 08:20:00;;;;;;;12.65;7.35;;;10.50;99.90;;;;;;5076020;28;20028;-67
2022/03/14 08:22:27;;;;;;;11.80;7.88;;;10.50;99.90;;;;;;5076092;28;20097;-66
2022/03/14 08:24:53;;;;;;;15.13;7.28;;;10.50;99.90;;;;;;5076228;28;20032;-66
2022/03/14 08:27:18;;;;;;;13.75;7.18;;;10.50;99.90;;;;;;5080007;28;20028;-64
2022/03/14 08:29:45;;;;;;;15.27;7.57;;;10.80;99.90;;;;;;5080597;28;20025;-64
2022/03/14 08:32:12;;;;;;;18.83;7.05;;;11.00;99.90;;;;;;5080336;28;20033;-64
2022/03/14 08:34:38;;;;;;;14.95;7.22;;;10.90;99.90;;;;;;5064034;28;20036;-66
2022/03/14 08:37:04;;;;;;;13.88;7.22;;;10.50;99.90;;;;;;5079813;28;20035;-64
2022/03/14 08:39:31;;;;;;;15.30;7.43;;;10.40;99.90;;;;;;5080319;28;20125;-65
2022/03/14 08:41:57;;;;;;;14.13;6.78;;;10.40;99.90;;;;;;5080386;28;20032;-65
2022/03/14 08:44:24;;;;;;;15.75;6.68;;;10.70;99.90;;;;;;5079716;28;20028;-65
2022/03/14 08:46:49;;;;;;;15.68;6.45;;;10.80;99.90;;;;;;5080409;28;20384;-66
2022/03/14 08:49:15;;;;;;;12.50;6.15;;;10.70;99.90;;;;;;5079669;28;20028;-65
2022/03/14 08:51:41;;;;;;;10.70;5.97;;;10.70;99.90;;;;;;5062906;28;20109;-65
2022/03/14 08:54:07;;;;;;;13.50;6.53;;;10.50;99.90;;;;;;5080262;28;20424;-66
2022/03/14 08:56:34;;;;;;;11.52;6.05;;;10.40;99.90;;;;;;5062816;28;20143;-65
2022/03/14 08:59:00;;;;;;;15.38;6.40;;;10.70;99.90;;;;;;5079354;28;20072;-64
2022/03/14 09:01:25;;;;;;;11.88;6.05;;;10.80;99.90;;;;;;5079987;28;20083;-66
2022/03/14 09:03:51;;;;;;;14.40;6.22;;;10.80;99.90;;;;;;5045887;28;20119;-66
2022/03/14 09:06:17;;;;;;;12.10;5.97;;;10.80;99.90;;;;;;5079289;28;20070;-65
2022/03/14 09:08:44;;;;;;;14.18;6.40;;;10.80;99.90;;;;;;5079894;28;20111;-66
2022/03/14 09:11:09;;;;;;;11.15;5.40;;;11.20;99.90;;;;;;5062347;28;20043;-65
2022/03/14 09:13:38;;;;;;;12.68;5.68;;;11.40;99.90;;;;;;5079143;28;20035;-66
2022/03/14 09:16:08;;;;;;;10.52;5.35;;;11.10;99.90;;;;;;5079290;28;20032;-69
2022/03/14 09:18:35;;;;;;;12.88;5.43;;;10.80;99.90;;;;;;5079738;28;20036;-67
2022/03/14 09:21:01;;;;;;;11.98;5.43;;;10.60;99.90;;;;;;5062480;28;20056;-67
2022/03/14 09:23:27;;;;;;;11.60;5.53;;;10.60;99.90;;;;;;5079629;28;20084;-68
2022/03/14 09:25:55;;;;;;;13.85;5.63;;;10.60;99.90;;;;;;5078812;28;20033;-66
2022/03/14 09:28:21;;;;;;;22.60;6.90;;;10.70;99.90;;;;;;5046103;28;20462;-66
2022/03/14 09:30:47;;;;;;;11.18;5.35;;;10.90;99.90;;;;;;5079518;28;20145;-65
2022/03/14 09:33:13;;;;;;;14.20;5.30;;;11.00;99.90;;;;;;5062062;28;20025;-67
2022/03/14 09:35:39;;;;;;;12.30;5.63;;;11.00;99.90;;;;;;5062015;28;20127;-67
2022/03/14 09:38:05;;;;;;;11.73;5.10;;;11.30;99.90;;;;;;5078018;28;20032;-66
2022/03/14 09:40:31;;;;;;;12.38;5.38;;;11.50;99.90;;;;;;5062046;28;20028;-67
2022/03/14 09:42:59;;;;;;;12.77;5.70;;;11.40;99.90;;;;;;5078925;28;20039;-66
2022/03/14 09:45:26;;;;;;;12.48;5.95;;;11.20;99.90;;;;;;5079248;28;20095;-66
2022/03/14 09:47:59;;;;;;;13.80;5.90;;;11.00;99.90;;;;;;5079211;28;20295;-66
2022/03/14 09:50:35;;;;;;;9.77;6.03;;;11.10;99.90;;;;;;5079225;28;20319;-66
2022/03/14 09:53:06;;;;;;;9.57;5.80;;;11.20;99.90;;;;;;5078542;28;20051;-66
2022/03/14 09:55:40;;;;;;;14.60;6.32;;;11.30;99.90;;;;;;5079226;28;20052;-66
2022/03/14 09:58:20;;;;;;;15.70;6.20;;;11.40;99.90;;;;;;5079156;28;20040;-66
2022/03/14 10:00:47;;;;;;;15.32;6.55;;;11.60;99.90;;;;;;5078137;28;20384;-68
2022/03/14 10:03:15;;;;;;;11.43;5.65;;;11.40;99.90;;;;;;5078999;28;20449;-68
2022/03/14 10:05:42;;;;;;;16.60;6.72;;;11.30;99.90;;;;;;5078869;28;20050;-68
2022/03/14 10:08:08;;;;;;;12.73;6.35;;;11.20;99.90;;;;;;5078819;28;20029;-68
2022/03/14 10:10:37;;;;;;;10.68;6.03;;;11.40;99.90;;;;;;5078110;28;20043;-66
2022/03/14 10:13:10;;;;;;;11.27;5.80;;;11.70;99.90;;;;;;5061760;28;20028;-67
2022/03/14 10:15:37;;;;;;;12.32;6.03;;;11.60;99.90;;;;;;5061259;28;20036;-66
2022/03/14 10:18:18;;;;;;;14.50;6.30;;;12.10;99.90;;;;;;5078126;28;20140;-66
2022/03/14 10:21:07;;;;;;;10.20;5.70;;;12.40;99.90;;;;;;5078923;28;20036;-66
2022/03/14 10:23:43;;;;;;;13.60;5.65;;;12.10;99.90;;;;;;5078606;28;20097;-65
2022/03/14 10:26:17;;;;;;;11.75;5.90;;;11.90;99.90;;;;;;5061012;28;20039;-68
2022/03/14 10:28:49;;;;;;;10.63;6.25;;;11.40;99.90;;;;;;5077708;28;20036;-67
2022/03/14 10:31:27;;;;;;;12.77;5.85;;;11.30;99.90;;;;;;5078278;28;20033;-67
2022/03/14 10:34:10;;;;;;;13.57;5.90;;;11.60;99.90;;;;;;5078297;28;20078;-66
2022/03/14 10:36:47;;;;;;;14.02;5.80;;;12.00;99.90;;;;;;5077533;28;20032;-68
2022/03/14 10:39:25;;;;;;;14.02;6.10;;;12.00;99.90;;;;;;5077327;28;20305;-67
2022/03/14 10:42:11;;;;;;;13.02;5.60;;;11.70;99.90;;;;;;5077449;28;20045;-68
2022/03/14 10:44:41;;;;;;;13.63;5.88;;;11.70;99.90;;;;;;5078105;28;20026;-65
2022/03/14 10:47:11;;;;;;;10.60;5.70;;;12.10;99.90;;;;;;5077984;28;20029;-66
2022/03/14 10:49:39;;;;;;;12.80;5.47;;;12.50;99.90;;;;;;5077718;28;20385;-66
2022/03/14 10:52:10;;;;;;;13.07;5.68;;;12.70;99.90;;;;;;5078013;28;20029;-66
2022/03/14 10:54:37;;;;;;;11.00;5.28;;;13.20;99.90;;;;;;5077985;28;20327;-65
2022/03/14 10:57:12;;;;;;;10.82;5.10;;;13.70;99.90;;;;;;5077846;28;20029;-66
2022/03/14 10:59:38;;;;;;;10.85;4.93;;;14.10;99.90;;;;;;5077806;28;20032;-66
2022/03/14 11:02:17;;;;;;;7.05;4.35;;;13.70;99.90;;;;;;5076638;28;20028;-66
2022/03/14 11:04:50;;;;;;;8.15;4.32;;;14.10;99.90;;;;;;5076908;28;20304;-66
2022/03/14 11:07:23;;;;;;;7.80;4.10;;;14.60;99.90;;;;;;5076771;28;20027;-66
2022/03/14 11:09:57;;;;;;;8.02;4.25;;;14.90;99.90;;;;;;5077602;28;20108;-66
2022/03/14 11:12:25;;;;;;;10.18;3.80;;;14.80;99.90;;;;;;5077383;28;20044;-65
2022/03/14 11:14:56;;;;;;;9.70;4.28;;;14.70;99.90;;;;;;5059960;28;20414;-65
2022/03/14 11:17:24;;;;;;;7.43;3.65;;;14.80;99.90;;;;;;5077334;28;20025;-65
2022/03/14 11:19:51;;;;;;;15.23;4.95;;;15.00;99.90;;;;;;5076537;28;20082;-66
2022/03/14 11:22:19;;;;;;;8.68;4.10;;;14.60;99.90;;;;;;5059848;28;20157;-68
2022/03/14 11:24:47;;;;;;;9.18;3.40;;;14.10;99.90;;;;;;5076513;28;20395;-63
2022/03/14 11:27:22;;;;;;;6.85;3.50;;;14.00;99.90;;;;;;5076458;28;20028;-64
2022/03/14 11:29:49;;;;;;;10.50;4.15;;;14.00;99.90;;;;;;5077239;28;20107;-65
2022/03/14 11:32:18;;;;;;;11.00;3.78;;;14.00;99.90;;;;;;5076366;28;20016;-67
2022/03/14 11:34:46;;;;;;;7.82;3.72;;;14.00;99.90;;;;;;5077798;28;20025;-66
2022/03/14 11:37:13;;;;;;;7.38;3.45;;;14.00;99.90;;;;;;5076490;28;20029;-66
2022/03/14 11:39:40;;;;;;;11.18;3.25;;;14.20;99.90;;;;;;5077037;28;20312;-66
2022/03/14 11:42:06;;;;;;;9.27;3.05;;;14.70;99.90;;;;;;5077073;28;20078;-66
2022/03/14 11:44:33;;;;;;;4.80;2.72;;;14.50;99.90;;;;;;5059862;28;20039;-67
2022/03/14 11:47:00;;;;;;;6.30;2.90;;;13.70;99.90;;;;;;5076953;28;20032;-66
2022/03/14 11:49:28;;;;;;;6.50;2.70;;;13.20;99.90;;;;;;5076362;28;20055;-68
2022/03/14 11:52:25;;;;;;;9.15;3.15;;;13.30;99.90;;;;;;5059437;28;20127;-64
2022/03/14 11:54:57;;;;;;;11.70;3.28;;;13.70;99.90;;;;;;5062034;28;20123;-65
2022/03/14 11:57:37;;;;;;;7.30;2.90;;;14.50;99.90;;;;;;5076846;28;20542;-66
2022/03/14 12:00:21;;;;;;;8.88;3.60;;;14.70;99.90;;;;;;5076212;28;20296;-65
2022/03/14 12:02:52;;;;;;;10.35;3.47;;;13.60;99.90;;;;;;5075928;28;20441;-66
2022/03/14 12:05:41;;;;;;;8.45;3.00;;;13.30;99.90;;;;;;5075902;28;20054;-66
2022/03/14 12:08:07;;;;;;;11.85;3.22;;;13.70;99.90;;;;;;5076607;28;20036;-67
2022/03/14 12:10:34;;;;;;;8.32;3.08;;;13.90;99.90;;;;;;5076009;28;20028;-67
2022/03/14 12:13:01;;;;;;;15.00;3.13;;;13.80;99.90;;;;;;5059342;28;20404;-65
2022/03/14 12:15:36;;;;;;;8.07;3.10;;;13.40;99.90;;;;;;5075904;28;20060;-65
2022/03/14 12:18:23;;;;;;;6.57;3.10;;;13.90;99.90;;;;;;5076653;28;20025;-65
2022/03/14 12:20:49;;;;;;;9.75;3.00;;;14.40;99.90;;;;;;5076484;28;20040;-65
2022/03/14 12:23:23;;;;;;;8.02;3.28;;;14.80;99.90;;;;;;5075872;28;20029;-64
2022/03/14 12:25:49;;;;;;;11.02;3.35;;;15.00;99.90;;;;;;5076433;28;20031;-63
2022/03/14 12:28:29;;;;;;;9.75;3.15;;;15.20;99.90;;;;;;5077101;28;20380;-64
2022/03/14 12:31:04;;;;;;;9.40;3.28;;;16.50;99.90;;;;;;5076492;28;20050;-65
2022/03/14 12:33:34;;;;;;;7.93;3.05;;;16.70;99.90;;;;;;5075775;28;20025;-65
2022/03/14 12:36:19;;;;;;;9.25;3.30;;;17.10;99.90;;;;;;5076787;28;20428;-65
2022/03/14 12:39:04;;;;;;;10.82;3.38;;;18.40;99.90;;;;;;5076258;28;20037;-65
2022/03/14 12:41:30;;;;;;;7.80;3.00;;;18.60;99.90;;;;;;5076242;28;20395;-69
2022/03/14 12:43:57;;;;;;;8.57;3.22;;;17.50;99.90;;;;;;5075810;28;20105;-67
2022/03/14 12:46:24;;;;;;;11.68;3.33;;;17.60;99.90;;;;;;5076389;28;20056;-65
2022/03/14 12:48:51;;;;;;;8.57;3.30;;;17.90;99.90;;;;;;5075692;28;20032;-64